Time;durP1;ratioP1;P1;durP2;ratioP2;P2;SDS_P1;SDS_P2;PMS_P1;PMS_P2;Temp;Humidity;BMP_temperature;BMP_pressure;BME280_temperature;BME280_humidity;BME280_pressure;Samples;Min_cycle;Max_cycle;Signal;HPM_P1;HPM_P2
2024/03/13 00:00:10;;;;;;;6.63;6.63;;;8.60;99.90;;;;;;10524872;28;20246;-80
2024/03/13 00:05:15;;;;;;;6.60;6.60;;;8.50;99.90;;;;;;10507779;28;20223;-80
2024/03/13 00:10:18;;;;;;;6.10;6.10;;;8.50;99.90;;;;;;10543963;28;20227;-80
2024/03/13 00:15:22;;;;;;;7.00;7.00;;;8.40;99.90;;;;;;10523920;28;20195;-78
2024/03/13 00:20:24;;;;;;;6.40;6.40;;;8.30;99.90;;;;;;10514713;28;20273;-80
2024/03/13 00:25:26;;;;;;;7.70;7.60;;;8.40;99.90;;;;;;10508272;28;20231;-80
2024/03/13 00:30:30;;;;;;;6.70;6.70;;;8.40;99.90;;;;;;10514346;28;20227;-80
2024/03/13 00:35:35;;;;;;;6.03;6.03;;;8.40;99.90;;;;;;10512715;28;20226;-79
2024/03/13 00:40:38;;;;;;;6.93;6.93;;;8.40;99.90;;;;;;10515895;28;20212;-80
2024/03/13 00:45:42;;;;;;;6.80;6.80;;;8.30;99.90;;;;;;10509335;28;20231;-80
2024/03/13 00:50:46;;;;;;;5.50;5.50;;;8.20;99.90;;;;;;10515487;28;20277;-79
2024/03/13 00:55:49;;;;;;;6.10;6.10;;;8.00;99.90;;;;;;10530455;28;20666;-81
2024/03/13 01:00:53;;;;;;;6.30;6.30;;;8.00;99.90;;;;;;10524722;28;20300;-81
2024/03/13 01:05:58;;;;;;;6.20;6.20;;;8.00;99.90;;;;;;10522923;28;20211;-81
2024/03/13 01:11:00;;;;;;;6.10;6.10;;;8.00;99.90;;;;;;10531609;28;20618;-81
2024/03/13 01:16:07;;;;;;;6.80;6.80;;;8.00;99.90;;;;;;10521997;28;20188;-81
2024/03/13 01:21:09;;;;;;;6.70;6.70;;;8.00;99.90;;;;;;10533004;28;20242;-80
2024/03/13 01:26:12;;;;;;;6.60;6.60;;;8.00;99.90;;;;;;10532482;28;20219;-81
2024/03/13 01:31:15;;;;;;;6.70;6.70;;;7.90;99.90;;;;;;10517494;28;20232;-80
2024/03/13 01:37:55;;;;;;;7.60;7.50;;;7.90;99.90;;;;;;10520569;28;20189;-79
2024/03/13 01:58:08;;;;;;;7.90;7.80;;;7.80;99.90;;;;;;10527964;28;21060;-79
2024/03/13 02:03:14;;;;;;;7.83;7.73;;;7.80;99.90;;;;;;10500034;28;20192;-79
2024/03/13 02:08:18;;;;;;;7.50;7.40;;;7.80;99.90;;;;;;10525129;28;20228;-80
2024/03/13 02:13:21;;;;;;;8.60;8.50;;;7.90;99.90;;;;;;10521342;28;20208;-81
2024/03/13 02:18:29;;;;;;;8.20;8.10;;;7.80;99.90;;;;;;10524755;28;20749;-80
2024/03/13 02:23:32;;;;;;;8.40;8.30;;;7.80;99.90;;;;;;10520240;28;20218;-81
2024/03/13 02:28:34;;;;;;;8.43;8.33;;;7.80;99.90;;;;;;10490344;28;20242;-80
2024/03/13 02:33:37;;;;;;;8.23;8.13;;;7.80;99.90;;;;;;10493698;28;20196;-81
2024/03/13 02:38:39;;;;;;;8.30;8.20;;;7.90;99.90;;;;;;10475599;28;20570;-80
2024/03/13 02:43:41;;;;;;;8.40;8.30;;;7.90;99.90;;;;;;10506875;28;20200;-80
2024/03/13 02:48:44;;;;;;;8.10;8.00;;;8.00;99.90;;;;;;10466238;28;20232;-80
2024/03/13 02:53:48;;;;;;;8.50;8.40;;;8.00;99.90;;;;;;10488568;28;20200;-81
2024/03/13 02:58:52;;;;;;;8.90;8.80;;;8.00;99.90;;;;;;10497561;28;20222;-81
2024/03/13 03:03:54;;;;;;;8.67;8.57;;;8.00;99.90;;;;;;10497307;28;20188;-80
2024/03/13 03:08:57;;;;;;;9.17;9.07;;;8.10;99.90;;;;;;10490310;28;20220;-80
2024/03/13 03:14:00;;;;;;;8.90;8.80;;;8.10;99.90;;;;;;10515355;28;20574;-81
2024/03/13 03:19:02;;;;;;;8.10;8.00;;;8.10;99.90;;;;;;10495501;28;20216;-81
2024/03/13 03:24:05;;;;;;;9.07;8.97;;;8.00;99.90;;;;;;10501469;28;20629;-80
2024/03/13 03:29:08;;;;;;;8.03;7.93;;;8.10;99.90;;;;;;10491501;28;20231;-80
2024/03/13 03:34:12;;;;;;;9.30;9.20;;;8.10;99.90;;;;;;10502091;28;20205;-80
2024/03/13 03:39:15;;;;;;;9.67;9.57;;;8.10;99.90;;;;;;10496026;28;20249;-80
2024/03/13 03:44:18;;;;;;;8.70;8.60;;;8.20;99.90;;;;;;10509997;28;20884;-80
2024/03/13 03:49:22;;;;;;;10.50;10.30;;;8.10;99.90;;;;;;10497838;28;20447;-79
2024/03/13 03:59:39;;;;;;;9.63;9.53;;;8.10;99.90;;;;;;10416628;28;20210;-77
2024/03/13 04:04:41;;;;;;;10.40;10.20;;;8.10;99.90;;;;;;10389069;28;20244;-77
2024/03/13 04:09:45;;;;;;;9.87;9.77;;;8.10;99.90;;;;;;10385218;28;20217;-77
2024/03/13 04:14:48;;;;;;;10.67;10.47;;;8.10;99.90;;;;;;10392388;28;20284;-76
2024/03/13 04:19:50;;;;;;;9.93;9.80;;;8.10;99.90;;;;;;10388071;28;20202;-76
2024/03/13 04:24:53;;;;;;;6.13;6.13;;;8.10;99.90;;;;;;10388856;28;20221;-76
2024/03/13 04:29:56;;;;;;;7.43;7.33;;;8.00;99.90;;;;;;10395404;28;20708;-76
2024/03/13 04:34:58;;;;;;;9.67;9.57;;;8.00;99.90;;;;;;10393214;28;20567;-76
2024/03/13 04:40:01;;;;;;;9.60;9.50;;;8.00;99.90;;;;;;10394456;28;20192;-77
2024/03/13 04:45:03;;;;;;;9.40;9.30;;;8.10;99.90;;;;;;10399035;28;20589;-78
2024/03/13 04:50:08;;;;;;;10.50;10.30;;;8.10;99.90;;;;;;10388941;28;20222;-75
2024/03/13 04:55:10;;;;;;;10.17;9.97;;;8.20;99.90;;;;;;10398091;28;20274;-76
2024/03/13 05:00:14;;;;;;;8.10;8.00;;;8.10;99.90;;;;;;10434979;28;20197;-75
2024/03/13 05:05:16;;;;;;;9.17;9.07;;;8.10;99.90;;;;;;10432754;28;20238;-75
2024/03/13 05:10:22;;;;;;;9.43;9.33;;;8.10;99.90;;;;;;10444650;28;20240;-75
2024/03/13 05:15:25;;;;;;;8.40;8.30;;;8.10;99.90;;;;;;10449569;28;20221;-76
2024/03/13 05:20:28;;;;;;;8.40;8.30;;;8.10;99.90;;;;;;10439458;28;20209;-75
2024/03/13 05:25:30;;;;;;;9.20;9.10;;;8.10;99.90;;;;;;10436810;28;20225;-73
2024/03/13 05:30:33;;;;;;;9.10;9.00;;;8.10;99.90;;;;;;10443059;28;20197;-75
2024/03/13 05:35:37;;;;;;;9.23;9.13;;;8.10;99.90;;;;;;10438861;28;20221;-75
2024/03/13 05:40:40;;;;;;;9.07;8.97;;;8.10;99.90;;;;;;10442136;28;20744;-75
2024/03/13 05:45:45;;;;;;;4.90;4.90;;;8.10;99.90;;;;;;10434444;28;20225;-75
2024/03/13 05:50:47;;;;;;;8.17;8.07;;;8.20;99.90;;;;;;10426813;28;20651;-75
2024/03/13 05:55:50;;;;;;;8.10;8.00;;;8.20;99.90;;;;;;10436145;28;20330;-75
2024/03/13 06:00:52;;;;;;;8.00;7.90;;;8.20;99.90;;;;;;10434737;28;20718;-76
2024/03/13 06:05:55;;;;;;;7.83;7.73;;;8.20;99.90;;;;;;10434245;28;20767;-76
2024/03/13 06:10:57;;;;;;;8.13;8.03;;;8.20;99.90;;;;;;10407498;28;20198;-75
2024/03/13 06:16:00;;;;;;;4.43;4.43;;;8.20;99.90;;;;;;10436003;28;20549;-76
2024/03/13 06:21:03;;;;;;;8.30;8.20;;;8.10;99.90;;;;;;10444454;28;20202;-76
2024/03/13 06:26:07;;;;;;;4.83;4.83;;;8.10;99.90;;;;;;10428147;28;20220;-76
2024/03/13 06:31:09;;;;;;;7.80;7.70;;;8.10;99.90;;;;;;10425356;28;20224;-76
2024/03/13 06:36:12;;;;;;;6.83;6.83;;;8.10;99.90;;;;;;10437489;28;20214;-76
2024/03/13 06:41:14;;;;;;;8.30;8.20;;;8.10;99.90;;;;;;10436925;28;20193;-76
2024/03/13 06:46:17;;;;;;;7.70;7.60;;;8.10;99.90;;;;;;10433354;28;20226;-76
2024/03/13 06:51:19;;;;;;;8.13;8.03;;;8.20;99.90;;;;;;10417108;28;20201;-76
2024/03/13 06:56:22;;;;;;;8.00;7.90;;;8.30;99.90;;;;;;10432110;28;20686;-75
2024/03/13 07:01:24;;;;;;;7.60;7.50;;;8.40;99.90;;;;;;10412718;28;20246;-75
2024/03/13 07:06:27;;;;;;;4.10;4.10;;;8.40;99.90;;;;;;10427938;28;20264;-75
2024/03/13 07:11:30;;;;;;;6.93;6.93;;;8.60;99.90;;;;;;10430204;28;20255;-76
2024/03/13 07:16:33;;;;;;;6.63;6.63;;;8.60;99.90;;;;;;10426935;28;20263;-75
2024/03/13 07:21:35;;;;;;;8.20;8.10;;;8.70;99.90;;;;;;10429566;28;20621;-75
2024/03/13 07:26:37;;;;;;;7.43;7.33;;;8.80;99.90;;;;;;10434115;28;20217;-75
2024/03/13 07:31:41;;;;;;;6.90;6.90;;;8.90;99.90;;;;;;10435118;28;20201;-75
2024/03/13 07:36:44;;;;;;;6.67;6.67;;;9.00;99.90;;;;;;10433279;28;20596;-75
2024/03/13 07:41:46;;;;;;;6.60;6.60;;;9.10;99.90;;;;;;10442292;28;20197;-75
2024/03/13 07:46:49;;;;;;;4.67;4.67;;;9.20;99.90;;;;;;10431845;28;20765;-76
2024/03/13 07:51:54;;;;;;;6.30;6.30;;;9.30;99.90;;;;;;10423722;28;20206;-74
2024/03/13 07:56:56;;;;;;;6.13;6.13;;;9.40;99.90;;;;;;10423505;28;20214;-76
2024/03/13 08:01:59;;;;;;;6.20;6.20;;;9.40;99.90;;;;;;10426225;28;20205;-75
2024/03/13 08:07:01;;;;;;;5.60;5.60;;;9.40;99.90;;;;;;10437446;28;20225;-75
2024/03/13 08:12:04;;;;;;;3.80;3.80;;;9.50;99.90;;;;;;10426790;28;20194;-76
2024/03/13 08:17:07;;;;;;;3.67;3.67;;;9.60;99.90;;;;;;10434311;28;20210;-77
2024/03/13 08:22:10;;;;;;;4.70;4.70;;;9.70;99.90;;;;;;10430726;28;20728;-74
2024/03/13 08:27:12;;;;;;;2.10;2.10;;;9.80;99.90;;;;;;10441629;28;20252;-76
2024/03/13 08:32:14;;;;;;;3.77;3.77;;;9.80;99.90;;;;;;10430218;28;20677;-76
2024/03/13 08:37:17;;;;;;;2.23;2.23;;;9.90;99.90;;;;;;10426361;28;21393;-75
2024/03/13 08:42:21;;;;;;;2.60;2.60;;;10.00;99.90;;;;;;10445974;28;20209;-75
2024/03/13 08:47:23;;;;;;;4.07;4.07;;;10.20;99.90;;;;;;10435696;28;20217;-74
2024/03/13 08:52:26;;;;;;;3.77;3.77;;;10.40;99.90;;;;;;10405107;28;20205;-75
2024/03/13 08:57:30;;;;;;;4.93;4.93;;;10.70;99.90;;;;;;10435473;28;20221;-75
2024/03/13 09:02:32;;;;;;;4.20;4.20;;;10.90;99.90;;;;;;10430144;28;20201;-76
2024/03/13 09:07:35;;;;;;;4.73;4.73;;;11.20;99.90;;;;;;10373474;28;20232;-76
2024/03/13 09:12:38;;;;;;;3.80;3.80;;;11.40;99.90;;;;;;10426376;28;20267;-76
2024/03/13 09:17:40;;;;;;;3.90;3.90;;;11.40;99.90;;;;;;10434511;28;20221;-76
2024/03/13 09:22:43;;;;;;;3.30;3.30;;;11.50;99.90;;;;;;10431999;28;20744;-77
2024/03/13 09:27:45;;;;;;;3.40;3.40;;;11.50;99.90;;;;;;10447563;28;20222;-77
2024/03/13 09:32:48;;;;;;;1.80;1.80;;;11.50;99.90;;;;;;10437437;28;20631;-76
2024/03/13 09:37:50;;;;;;;2.87;2.87;;;11.60;99.90;;;;;;10416776;28;20232;-76
2024/03/13 09:42:53;;;;;;;3.20;3.20;;;11.70;99.90;;;;;;10448159;28;20213;-76
2024/03/13 09:47:55;;;;;;;3.20;3.20;;;11.70;99.90;;;;;;10446685;28;20610;-77
2024/03/13 09:52:58;;;;;;;3.37;3.37;;;11.70;99.90;;;;;;10444691;28;20271;-76
2024/03/13 09:58:00;;;;;;;3.20;3.20;;;11.80;99.90;;;;;;10486313;22;20230;-81
2024/03/13 10:03:03;;;;;;;3.50;3.50;;;11.90;99.90;;;;;;10577104;28;20203;-81
2024/03/13 10:08:06;;;;;;;2.73;2.73;;;12.00;99.90;;;;;;10575744;28;20234;-82
2024/03/13 10:13:08;;;;;;;1.20;1.20;;;12.10;99.90;;;;;;10568766;28;20210;-82
2024/03/13 10:18:13;;;;;;;1.47;1.47;;;12.20;99.90;;;;;;10561409;28;20272;-81
2024/03/13 10:23:16;;;;;;;2.70;2.70;;;12.30;99.90;;;;;;10576277;28;20206;-81
2024/03/13 10:28:23;;;;;;;2.73;2.73;;;12.30;99.90;;;;;;10587395;28;20232;-80
2024/03/13 10:33:25;;;;;;;2.30;2.30;;;12.30;99.90;;;;;;10576260;28;20207;-81
2024/03/13 10:38:28;;;;;;;1.97;1.97;;;12.30;99.90;;;;;;10557209;28;20264;-81
2024/03/13 10:43:31;;;;;;;2.40;2.40;;;12.30;99.90;;;;;;10565731;28;20721;-81
2024/03/13 10:48:35;;;;;;;2.50;2.50;;;12.30;99.90;;;;;;10553868;28;20216;-81
2024/03/13 10:53:37;;;;;;;1.93;1.93;;;12.30;99.90;;;;;;10523818;28;20199;-81
2024/03/13 10:58:39;;;;;;;2.23;2.23;;;12.30;99.90;;;;;;10548716;28;20212;-81
2024/03/13 11:03:43;;;;;;;2.10;2.10;;;12.40;99.90;;;;;;10570800;28;20664;-82
2024/03/13 11:08:45;;;;;;;2.80;2.80;;;12.40;99.90;;;;;;10555471;28;20239;-82
2024/03/13 11:13:50;;;;;;;2.80;2.80;;;12.40;99.90;;;;;;10542764;28;20194;-81
2024/03/13 11:18:52;;;;;;;2.80;2.80;;;12.40;99.90;;;;;;10555605;28;20215;-81
2024/03/13 11:23:55;;;;;;;3.07;3.07;;;12.40;99.90;;;;;;10555603;28;20652;-81
2024/03/13 11:28:57;;;;;;;2.80;2.80;;;12.40;99.90;;;;;;10529460;28;20269;-81
2024/03/13 11:34:00;;;;;;;3.00;3.00;;;12.30;99.90;;;;;;10562312;28;20609;-80
2024/03/13 11:39:03;;;;;;;2.63;2.63;;;12.30;99.90;;;;;;10580596;28;20218;-80
2024/03/13 11:44:07;;;;;;;2.03;2.03;;;12.30;99.90;;;;;;10558189;28;20206;-82
2024/03/13 11:49:10;;;;;;;3.30;3.30;;;12.40;99.90;;;;;;10541537;28;20230;-82
2024/03/13 11:54:13;;;;;;;3.50;3.50;;;12.50;99.90;;;;;;10526836;28;20195;-81
2024/03/13 11:59:16;;;;;;;2.90;2.90;;;12.50;99.90;;;;;;10556666;28;20711;-81
2024/03/13 12:04:19;;;;;;;3.10;3.10;;;12.60;99.90;;;;;;10560845;28;20252;-81
2024/03/13 12:09:23;;;;;;;3.10;3.10;;;12.70;99.90;;;;;;10576851;28;20223;-80
2024/03/13 12:14:25;;;;;;;3.30;3.30;;;12.70;99.90;;;;;;10560686;28;20702;-81
2024/03/13 12:19:28;;;;;;;1.10;1.10;;;12.70;99.90;;;;;;10557487;28;20696;-81
2024/03/13 12:24:33;;;;;;;3.00;3.00;;;12.60;99.90;;;;;;10590577;28;20260;-81
2024/03/13 12:29:38;;;;;;;1.23;1.23;;;12.50;99.90;;;;;;10568950;28;20658;-81
2024/03/13 12:34:43;;;;;;;3.80;3.80;;;12.50;99.90;;;;;;10589454;28;20203;-80
2024/03/13 12:39:46;;;;;;;2.70;2.70;;;12.40;99.90;;;;;;10567091;28;20280;-80
2024/03/13 12:44:49;;;;;;;4.10;4.10;;;12.40;99.90;;;;;;10527480;28;20195;-80
2024/03/13 12:49:51;;;;;;;2.03;2.03;;;12.40;99.90;;;;;;10574911;28;20226;-79
2024/03/13 12:54:54;;;;;;;5.37;5.37;;;12.50;99.90;;;;;;10552461;28;20232;-80
2024/03/13 12:59:58;;;;;;;2.70;2.70;;;12.60;99.90;;;;;;10553819;28;20226;-80
2024/03/13 13:05:00;;;;;;;5.40;5.40;;;12.60;99.90;;;;;;10565583;28;20203;-79
2024/03/13 13:10:03;;;;;;;4.47;4.47;;;12.60;99.90;;;;;;10570582;28;20211;-80
2024/03/13 13:15:06;;;;;;;5.47;5.47;;;12.50;99.90;;;;;;10563829;28;20199;-80
2024/03/13 13:20:11;;;;;;;6.17;6.17;;;12.60;99.90;;;;;;10569855;28;20220;-80
2024/03/13 13:25:13;;;;;;;5.40;5.40;;;12.80;99.90;;;;;;10570969;28;20195;-80
2024/03/13 13:30:16;;;;;;;5.83;5.83;;;12.90;99.90;;;;;;10571223;28;20235;-80
2024/03/13 13:35:18;;;;;;;6.40;6.40;;;13.00;99.90;;;;;;10570701;28;20575;-79
2024/03/13 13:40:22;;;;;;;4.90;4.90;;;13.00;99.90;;;;;;10570187;28;20196;-80
2024/03/13 13:45:25;;;;;;;4.90;4.90;;;13.00;99.90;;;;;;10566983;28;20236;-80
2024/03/13 13:50:27;;;;;;;6.20;6.20;;;13.00;99.90;;;;;;10571419;28;20219;-80
2024/03/13 13:55:30;;;;;;;5.33;5.33;;;13.00;99.90;;;;;;10588121;28;20222;-80
2024/03/13 14:00:32;;;;;;;5.40;5.40;;;13.10;99.90;;;;;;10560181;28;20217;-80
2024/03/13 14:05:35;;;;;;;4.50;4.50;;;13.10;99.90;;;;;;10569518;28;20264;-80
2024/03/13 14:10:39;;;;;;;5.80;5.80;;;12.90;99.90;;;;;;10558996;28;20218;-80
2024/03/13 14:15:42;;;;;;;5.40;5.40;;;12.80;99.90;;;;;;10568408;28;20272;-80
2024/03/13 14:20:44;;;;;;;5.57;5.57;;;12.80;99.90;;;;;;10560712;28;20191;-79
2024/03/13 14:25:47;;;;;;;6.20;6.20;;;12.80;99.90;;;;;;10569699;28;21016;-80
2024/03/13 14:30:51;;;;;;;4.47;4.47;;;12.70;99.90;;;;;;10563165;28;20603;-80
2024/03/13 14:35:53;;;;;;;5.50;5.50;;;12.70;99.90;;;;;;10569235;28;20696;-81
2024/03/13 14:40:56;;;;;;;5.33;5.33;;;12.70;99.90;;;;;;10547365;28;20199;-80
2024/03/13 14:45:59;;;;;;;4.97;4.97;;;12.60;99.90;;;;;;10570602;28;20277;-80
2024/03/13 14:51:01;;;;;;;5.70;5.70;;;12.70;99.90;;;;;;10549170;28;20223;-80
2024/03/13 14:56:04;;;;;;;5.30;5.30;;;12.70;99.90;;;;;;10548730;28;20264;-81
2024/03/13 15:01:07;;;;;;;2.17;2.17;;;12.70;99.90;;;;;;10564944;28;20217;-80
2024/03/13 15:06:09;;;;;;;5.60;5.60;;;12.70;99.90;;;;;;10538637;28;20222;-81
2024/03/13 15:11:12;;;;;;;5.30;5.30;;;12.80;99.90;;;;;;10568573;28;20222;-81
2024/03/13 15:16:15;;;;;;;5.53;5.53;;;12.90;99.90;;;;;;10565517;28;20226;-81
2024/03/13 15:21:17;;;;;;;4.77;4.77;;;12.80;99.90;;;;;;10556711;28;20192;-81
2024/03/13 15:26:20;;;;;;;2.67;2.67;;;12.90;99.90;;;;;;10573380;28;20224;-81
2024/03/13 15:31:23;;;;;;;5.30;5.30;;;12.90;99.90;;;;;;10573723;28;20245;-81
2024/03/13 15:36:25;;;;;;;2.50;2.50;;;13.00;99.90;;;;;;10572520;28;20223;-81
2024/03/13 15:41:28;;;;;;;4.80;4.80;;;13.00;99.90;;;;;;10600861;28;20224;-80
2024/03/13 15:46:30;;;;;;;3.80;3.80;;;13.10;99.90;;;;;;10590842;28;20215;-81
2024/03/13 15:51:33;;;;;;;3.90;3.90;;;13.20;99.90;;;;;;10572920;28;20207;-81
2024/03/13 15:56:36;;;;;;;3.20;3.20;;;13.20;99.90;;;;;;10559125;28;20241;-81
2024/03/13 16:01:39;;;;;;;3.37;3.37;;;13.20;99.90;;;;;;10561259;28;20188;-81
2024/03/13 16:06:41;;;;;;;3.50;3.50;;;13.20;99.90;;;;;;10559426;28;20590;-81
2024/03/13 16:11:44;;;;;;;3.60;3.60;;;13.20;99.90;;;;;;10569899;28;20216;-81
2024/03/13 16:16:47;;;;;;;3.20;3.20;;;13.30;99.90;;;;;;10572995;28;20655;-81
2024/03/13 16:21:49;;;;;;;3.10;3.10;;;13.30;99.90;;;;;;10568863;28;20203;-81
2024/03/13 16:26:52;;;;;;;2.40;2.40;;;13.20;99.90;;;;;;10575229;28;20227;-80
2024/03/13 16:31:54;;;;;;;2.90;2.90;;;13.20;99.90;;;;;;10572286;28;20256;-81
2024/03/13 16:36:57;;;;;;;2.60;2.60;;;13.20;99.90;;;;;;10576104;28;20218;-81
2024/03/13 16:41:59;;;;;;;2.33;2.33;;;13.10;99.90;;;;;;10584525;28;20199;-81
2024/03/13 16:47:02;;;;;;;2.47;2.47;;;13.00;99.90;;;;;;10575360;28;20631;-80
2024/03/13 16:52:05;;;;;;;2.20;2.20;;;13.00;99.90;;;;;;10578324;28;20219;-81
2024/03/13 16:57:07;;;;;;;2.37;2.37;;;12.80;99.90;;;;;;10579903;28;20227;-80
2024/03/13 17:02:10;;;;;;;2.20;2.20;;;12.80;99.90;;;;;;10581436;28;20187;-80
2024/03/13 17:07:12;;;;;;;2.30;2.30;;;12.70;99.90;;;;;;10582410;28;20214;-80
2024/03/13 17:12:15;;;;;;;2.10;2.10;;;12.70;99.90;;;;;;10566780;28;20225;-80
2024/03/13 17:17:17;;;;;;;2.23;2.23;;;12.70;99.90;;;;;;10546405;28;20219;-80
2024/03/13 17:22:20;;;;;;;2.20;2.20;;;12.60;99.90;;;;;;10562518;28;20224;-81
2024/03/13 17:27:23;;;;;;;2.23;2.23;;;12.60;99.90;;;;;;10566803;28;20772;-80
2024/03/13 17:32:25;;;;;;;1.83;1.83;;;12.60;99.90;;;;;;10567040;28;20592;-80
2024/03/13 17:37:28;;;;;;;0.80;0.80;;;12.50;99.90;;;;;;10571362;28;20223;-80
2024/03/13 17:42:30;;;;;;;2.00;2.00;;;12.50;99.90;;;;;;10541815;28;20195;-80
2024/03/13 17:47:34;;;;;;;1.90;1.90;;;12.40;99.90;;;;;;10588437;28;20214;-80
2024/03/13 17:52:36;;;;;;;2.00;2.00;;;12.20;99.90;;;;;;10567562;28;20215;-78
2024/03/13 17:57:39;;;;;;;1.90;1.90;;;12.10;99.90;;;;;;10571952;28;20226;-78
2024/03/13 18:02:42;;;;;;;1.90;1.90;;;12.00;99.90;;;;;;10564014;28;20192;-79
2024/03/13 18:07:46;;;;;;;2.20;2.20;;;11.90;99.90;;;;;;10567256;28;20223;-78
2024/03/13 18:12:49;;;;;;;1.80;1.80;;;11.80;99.90;;;;;;10559904;28;20772;-78
2024/03/13 18:17:51;;;;;;;2.30;2.30;;;11.70;99.90;;;;;;10562472;28;20219;-81
2024/03/13 18:22:54;;;;;;;1.50;1.50;;;11.60;99.90;;;;;;10571382;28;20200;-79
2024/03/13 18:27:56;;;;;;;2.00;2.00;;;11.50;99.90;;;;;;10558172;28;20757;-79
2024/03/13 18:32:59;;;;;;;1.30;1.30;;;11.40;99.90;;;;;;10558194;28;20216;-79
2024/03/13 18:38:02;;;;;;;1.73;1.73;;;11.30;99.90;;;;;;10563699;28;20223;-79
2024/03/13 18:43:05;;;;;;;1.27;1.27;;;11.30;99.90;;;;;;10563049;28;20206;-78
2024/03/13 18:48:08;;;;;;;1.40;1.40;;;11.20;99.90;;;;;;10542543;28;20219;-78
2024/03/13 18:53:11;;;;;;;1.13;1.13;;;11.10;99.90;;;;;;10555774;28;20219;-78
2024/03/13 18:58:14;;;;;;;1.40;1.40;;;11.10;99.90;;;;;;10566750;28;20234;-79
2024/03/13 19:03:16;;;;;;;0.97;0.97;;;11.00;99.90;;;;;;10576699;28;20208;-79
2024/03/13 19:08:19;;;;;;;1.40;1.40;;;11.00;99.90;;;;;;10553120;28;20628;-80
2024/03/13 19:13:22;;;;;;;1.30;1.30;;;11.00;99.90;;;;;;10578034;28;20239;-80
2024/03/13 19:18:24;;;;;;;1.30;1.30;;;11.10;99.90;;;;;;10564048;28;20633;-79
2024/03/13 19:23:27;;;;;;;0.90;0.90;;;11.10;99.90;;;;;;10577493;28;20191;-79
2024/03/13 19:28:29;;;;;;;1.47;1.47;;;11.20;99.90;;;;;;10546720;28;20208;-79
2024/03/13 19:33:33;;;;;;;1.30;1.30;;;11.10;99.90;;;;;;10559447;28;20583;-79
2024/03/13 19:38:36;;;;;;;1.20;1.20;;;11.10;99.90;;;;;;10563389;28;20223;-79
2024/03/13 19:43:38;;;;;;;0.90;0.90;;;11.20;99.90;;;;;;10561574;28;20224;-79
2024/03/13 19:48:41;;;;;;;1.40;1.40;;;11.10;99.90;;;;;;10562908;28;20211;-79
2024/03/13 19:53:43;;;;;;;0.60;0.60;;;11.20;99.90;;;;;;10564644;28;20693;-79
2024/03/13 19:58:48;;;;;;;1.40;1.40;;;11.10;99.90;;;;;;10552754;28;20280;-79
2024/03/13 20:03:50;;;;;;;1.30;1.30;;;11.10;99.90;;;;;;10580383;28;20652;-79
2024/03/13 20:08:53;;;;;;;1.50;1.50;;;11.10;99.90;;;;;;10579373;28;20215;-80
2024/03/13 20:13:56;;;;;;;1.70;1.70;;;11.00;99.90;;;;;;10560871;28;20225;-78
2024/03/13 20:18:59;;;;;;;1.23;1.23;;;11.00;99.90;;;;;;10570492;28;20215;-79
2024/03/13 20:24:02;;;;;;;1.40;1.40;;;11.10;99.90;;;;;;10542037;28;20241;-79
2024/03/13 20:29:04;;;;;;;1.60;1.60;;;11.10;99.90;;;;;;10552257;28;20203;-79
2024/03/13 20:34:08;;;;;;;1.37;1.37;;;11.10;99.90;;;;;;10553098;28;20335;-79
2024/03/13 20:39:11;;;;;;;1.20;1.20;;;11.10;99.90;;;;;;10564818;28;20268;-79
2024/03/13 20:44:14;;;;;;;1.50;1.50;;;11.10;99.90;;;;;;10561305;28;20183;-80
2024/03/13 20:49:18;;;;;;;1.63;1.63;;;11.10;99.90;;;;;;10574482;28;20280;-79
2024/03/13 20:54:21;;;;;;;1.40;1.40;;;11.10;99.90;;;;;;10548638;28;20468;-80
2024/03/13 20:59:23;;;;;;;1.60;1.60;;;11.10;99.90;;;;;;10550955;28;20215;-79
2024/03/13 21:04:27;;;;;;;1.40;1.40;;;11.10;99.90;;;;;;10572686;28;20198;-80
2024/03/13 21:09:30;;;;;;;1.50;1.50;;;11.20;99.90;;;;;;10575333;28;20218;-79
2024/03/13 21:14:32;;;;;;;1.77;1.77;;;11.20;99.90;;;;;;10537972;28;20736;-79
2024/03/13 21:19:35;;;;;;;1.70;1.70;;;11.30;99.90;;;;;;10581165;28;20692;-78
2024/03/13 21:24:37;;;;;;;1.40;1.40;;;11.30;99.90;;;;;;10580120;28;20676;-79
2024/03/13 21:29:40;;;;;;;1.60;1.60;;;11.30;99.90;;;;;;10578526;28;20272;-79
2024/03/13 21:34:42;;;;;;;0.90;0.90;;;11.40;99.90;;;;;;10582936;28;20215;-79
2024/03/13 21:39:45;;;;;;;0.80;0.80;;;11.40;99.90;;;;;;10580371;28;20268;-79
2024/03/13 21:44:47;;;;;;;1.20;1.20;;;11.40;99.90;;;;;;10579230;28;20188;-79
2024/03/13 21:49:50;;;;;;;1.23;1.23;;;11.50;99.90;;;;;;10555841;28;20215;-79
2024/03/13 21:54:54;;;;;;;1.13;1.13;;;11.50;99.90;;;;;;10581359;28;20226;-79
2024/03/13 21:59:57;;;;;;;1.30;1.30;;;11.40;99.90;;;;;;10587345;28;20227;-79
2024/03/13 22:04:59;;;;;;;1.30;1.30;;;11.40;99.90;;;;;;10571829;28;20217;-79
2024/03/13 22:10:03;;;;;;;1.40;1.40;;;11.40;99.90;;;;;;10585168;28;20623;-79
2024/03/13 22:15:06;;;;;;;1.50;1.50;;;11.40;99.90;;;;;;10569694;28;20191;-79
2024/03/13 22:20:09;;;;;;;1.40;1.40;;;11.40;99.90;;;;;;10553574;28;20223;-79
2024/03/13 22:25:12;;;;;;;1.70;1.70;;;11.40;99.90;;;;;;10551397;28;20214;-78
2024/03/13 22:30:15;;;;;;;1.43;1.43;;;11.40;99.90;;;;;;10521330;28;20233;-79
2024/03/13 22:35:18;;;;;;;1.50;1.50;;;11.40;99.90;;;;;;10568098;28;21051;-79
2024/03/13 22:40:20;;;;;;;1.60;1.60;;;11.40;99.90;;;;;;10569233;28;20206;-80
2024/03/13 22:45:23;;;;;;;1.60;1.60;;;11.50;99.90;;;;;;10569594;28;20319;-78
2024/03/13 22:50:25;;;;;;;1.60;1.60;;;11.50;99.90;;;;;;10552938;28;20215;-79
2024/03/13 22:55:28;;;;;;;1.50;1.50;;;11.50;99.90;;;;;;10550965;28;20203;-79
2024/03/13 23:00:40;;;;;;;1.40;1.40;;;11.40;99.90;;;;;;10570980;28;20207;-79
2024/03/13 23:05:43;;;;;;;1.50;1.50;;;11.50;99.90;;;;;;10555760;28;20692;-80
2024/03/13 23:10:46;;;;;;;1.40;1.40;;;11.50;99.90;;;;;;10564577;28;20223;-79
2024/03/13 23:15:49;;;;;;;1.40;1.40;;;11.50;99.90;;;;;;10542949;28;20219;-80
2024/03/13 23:20:51;;;;;;;1.43;1.43;;;11.40;99.90;;;;;;10549870;28;20211;-80
2024/03/13 23:25:54;;;;;;;1.50;1.50;;;11.50;99.90;;;;;;10567185;28;20219;-79
2024/03/13 23:30:57;;;;;;;1.40;1.40;;;11.50;99.90;;;;;;10573964;28;20711;-79
2024/03/13 23:36:00;;;;;;;1.40;1.40;;;11.50;99.90;;;;;;10572665;28;20275;-79
2024/03/13 23:41:05;;;;;;;1.70;1.70;;;11.50;99.90;;;;;;10574559;28;20477;-79
2024/03/13 23:46:12;;;;;;;1.60;1.60;;;11.50;99.90;;;;;;10577640;28;20231;-80
2024/03/13 23:51:15;;;;;;;1.37;1.37;;;11.50;99.90;;;;;;10561451;28;20244;-78
2024/03/13 23:56:18;;;;;;;1.27;1.27;;;11.50;99.90;;;;;;10560163;28;20233;-79
